createdAt,value
2022-12-26T00:00:48.512Z,13.49
2022-12-26T00:03:16.986Z,13.48
2022-12-26T00:05:43.469Z,13.48
2022-12-26T00:08:09.933Z,13.49
2022-12-26T00:10:36.408Z,13.49
2022-12-26T00:13:37.082Z,13.48
2022-12-26T00:15:50.267Z,13.48
2022-12-26T00:18:16.765Z,13.48
2022-12-26T00:23:28.997Z,13.48
2022-12-26T00:25:55.370Z,13.48
2022-12-26T00:28:21.735Z,13.48
2022-12-26T00:30:48.087Z,13.48
2022-12-26T00:33:14.465Z,13.46
2022-12-26T00:35:40.856Z,13.47
2022-12-26T00:38:07.877Z,13.47
2022-12-26T00:40:34.220Z,13.47
2022-12-26T00:43:00.574Z,13.47
2022-12-26T00:45:27.429Z,13.46
2022-12-26T00:47:53.825Z,13.46
2022-12-26T00:50:20.247Z,13.45
2022-12-26T00:52:46.851Z,13.46
2022-12-26T00:55:13.379Z,13.45
2022-12-26T00:57:39.808Z,13.45
2022-12-26T01:00:06.758Z,13.46
2022-12-26T01:02:33.587Z,13.45
2022-12-26T01:05:00.378Z,13.45
2022-12-26T01:07:27.437Z,13.46
2022-12-26T01:09:53.893Z,13.44
2022-12-26T01:12:20.546Z,13.45
2022-12-26T01:14:47.337Z,13.45
2022-12-26T01:17:13.670Z,13.43
2022-12-26T01:19:39.989Z,13.44
2022-12-26T01:22:06.482Z,13.43
2022-12-26T01:24:34.001Z,13.44
2022-12-26T01:27:01.047Z,13.43
2022-12-26T01:29:27.354Z,13.43
2022-12-26T01:31:53.937Z,13.42
2022-12-26T01:34:20.560Z,13.42
2022-12-26T01:36:47.075Z,13.43
2022-12-26T01:39:13.387Z,13.43
2022-12-26T01:41:39.707Z,13.42
2022-12-26T01:44:06.247Z,13.43
2022-12-26T01:46:32.626Z,13.42
2022-12-26T01:48:59.682Z,13.41
2022-12-26T01:51:25.994Z,13.41
2022-12-26T01:53:52.539Z,13.42
2022-12-26T01:56:19.107Z,13.43
2022-12-26T01:58:45.411Z,13.41
2022-12-26T02:01:12.230Z,13.42
2022-12-26T02:03:39.349Z,13.41
2022-12-26T02:06:06.168Z,13.41
2022-12-26T02:08:33.544Z,13.41
2022-12-26T02:11:01.619Z,13.42
2022-12-26T02:13:28.135Z,13.41
2022-12-26T02:15:55.015Z,13.41
2022-12-26T02:18:22.489Z,13.41
2022-12-26T02:20:48.962Z,13.41
2022-12-26T02:23:16.618Z,13.39
2022-12-26T02:25:43.112Z,13.39
2022-12-26T02:28:09.873Z,13.40
2022-12-26T02:30:36.818Z,13.40
2022-12-26T02:33:03.143Z,13.40
2022-12-26T02:35:32.136Z,13.39
2022-12-26T02:37:58.483Z,13.38
2022-12-26T02:40:25.093Z,13.38
2022-12-26T02:42:51.751Z,13.40
2022-12-26T02:45:18.148Z,13.40
2022-12-26T02:47:46.685Z,13.37
2022-12-26T02:50:13.484Z,13.38
2022-12-26T02:52:39.795Z,13.38
2022-12-26T02:55:06.164Z,13.37
2022-12-26T02:57:32.808Z,13.37
2022-12-26T02:59:59.538Z,13.38
2022-12-26T03:02:25.972Z,13.38
2022-12-26T03:04:52.491Z,13.37
2022-12-26T03:07:18.998Z,13.38
2022-12-26T03:09:45.467Z,13.37
2022-12-26T03:12:11.784Z,13.37
2022-12-26T03:14:38.530Z,13.36
2022-12-26T03:17:05.493Z,13.36
2022-12-26T03:19:31.975Z,13.36
2022-12-26T03:21:58.550Z,13.36
2022-12-26T03:24:25.760Z,13.36
2022-12-26T03:26:52.211Z,13.35
2022-12-26T03:29:19.184Z,13.36
2022-12-26T03:31:46.065Z,13.36
2022-12-26T03:34:12.668Z,13.35
2022-12-26T03:36:39.014Z,13.37
2022-12-26T03:39:05.609Z,13.36
2022-12-26T03:41:32.122Z,13.36
2022-12-26T03:43:58.875Z,13.34
2022-12-26T03:46:25.721Z,13.36
2022-12-26T03:48:52.255Z,13.36
2022-12-26T03:51:19.178Z,13.35
2022-12-26T03:53:45.832Z,13.35
2022-12-26T03:56:12.338Z,13.35
2022-12-26T03:58:39.278Z,13.34
2022-12-26T04:01:06.105Z,13.34
2022-12-26T04:03:33.147Z,13.33
2022-12-26T04:06:00.459Z,13.33
2022-12-26T04:08:27.524Z,13.34
2022-12-26T04:10:54.375Z,13.33
2022-12-26T04:16:05.272Z,13.33
2022-12-26T04:18:32.413Z,13.33
2022-12-26T04:20:58.713Z,13.34
2022-12-26T04:23:25.381Z,13.32
2022-12-26T04:25:52.484Z,13.32
2022-12-26T04:28:18.807Z,13.33
2022-12-26T04:30:45.657Z,13.32
2022-12-26T04:33:12.072Z,13.33
2022-12-26T04:35:38.537Z,13.32
2022-12-26T04:38:05.778Z,13.32
2022-12-26T04:40:32.253Z,13.31
2022-12-26T04:42:59.163Z,13.31
2022-12-26T04:45:25.927Z,13.32
2022-12-26T04:47:52.257Z,13.32
2022-12-26T04:50:18.631Z,13.32
2022-12-26T04:52:45.035Z,13.31
2022-12-26T04:55:11.596Z,13.32
2022-12-26T04:57:37.923Z,13.31
2022-12-26T05:00:04.644Z,13.31
2022-12-26T05:02:33.383Z,13.31
2022-12-26T05:04:59.833Z,13.32
2022-12-26T05:07:26.268Z,13.30
2022-12-26T05:09:53.292Z,13.32
2022-12-26T05:12:19.928Z,13.32
2022-12-26T05:14:46.345Z,13.31
2022-12-26T05:17:13.422Z,13.31
2022-12-26T05:19:39.736Z,13.31
2022-12-26T05:22:06.358Z,13.30
2022-12-26T05:24:32.868Z,13.30
2022-12-26T05:26:59.552Z,13.30
2022-12-26T05:29:26.479Z,13.30
2022-12-26T05:31:53.247Z,13.29
2022-12-26T05:34:19.573Z,13.30
2022-12-26T05:36:45.843Z,13.30
2022-12-26T05:39:12.476Z,13.30
2022-12-26T05:41:39.437Z,13.30
2022-12-26T05:44:06.205Z,13.30
2022-12-26T05:46:33.213Z,13.29
2022-12-26T05:48:59.803Z,13.30
2022-12-26T05:51:27.300Z,13.30
2022-12-26T05:53:53.626Z,13.29
2022-12-26T05:56:20.049Z,13.30
2022-12-26T05:58:46.450Z,13.28
2022-12-26T06:01:13.188Z,13.29
2022-12-26T06:03:39.779Z,13.29
2022-12-26T06:06:06.339Z,13.30
2022-12-26T06:08:33.111Z,13.28
2022-12-26T06:10:59.976Z,13.28
2022-12-26T06:13:26.415Z,13.28
2022-12-26T06:15:56.172Z,13.29
2022-12-26T06:18:22.570Z,13.29
2022-12-26T06:20:49.817Z,13.29
2022-12-26T06:23:16.136Z,13.28
2022-12-26T06:25:42.879Z,13.28
2022-12-26T06:28:09.286Z,13.29
2022-12-26T06:30:36.038Z,13.29
2022-12-26T06:33:05.997Z,13.29
2022-12-26T06:35:33.002Z,13.28
2022-12-26T06:37:59.396Z,13.28
2022-12-26T06:40:28.395Z,13.28
2022-12-26T06:42:55.245Z,13.28
2022-12-26T06:45:22.493Z,13.27
2022-12-26T06:47:48.823Z,13.27
2022-12-26T06:50:15.652Z,13.27
2022-12-26T06:52:41.968Z,13.26
2022-12-26T06:55:08.602Z,13.28
2022-12-26T06:57:35.583Z,13.27
2022-12-26T07:00:02.175Z,13.27
2022-12-26T07:02:28.980Z,13.28
2022-12-26T07:04:55.634Z,13.27
2022-12-26T07:07:22.003Z,13.27
2022-12-26T07:09:48.721Z,13.27
2022-12-26T07:12:15.281Z,13.28
2022-12-26T07:14:41.765Z,13.27
2022-12-26T07:17:09.228Z,13.26
2022-12-26T07:19:36.367Z,13.26
2022-12-26T07:22:02.999Z,13.27
2022-12-26T07:24:29.407Z,13.26
2022-12-26T07:26:56.061Z,13.27
2022-12-26T07:29:22.415Z,13.25
2022-12-26T07:31:48.936Z,13.26
2022-12-26T07:34:15.383Z,13.26
2022-12-26T07:36:42.102Z,13.26
2022-12-26T07:39:08.765Z,13.26
2022-12-26T07:41:35.917Z,13.25
2022-12-26T07:44:03.761Z,13.25
2022-12-26T07:46:30.496Z,13.25
2022-12-26T07:48:56.974Z,13.27
2022-12-26T07:51:23.806Z,13.25
2022-12-26T07:56:34.561Z,13.25
2022-12-26T07:59:01.025Z,13.26
2022-12-26T08:01:27.865Z,13.26
2022-12-26T08:03:54.387Z,13.25
2022-12-26T08:06:20.716Z,13.25
2022-12-26T08:08:51.113Z,13.26
2022-12-26T08:11:17.855Z,13.25
2022-12-26T08:13:44.265Z,13.25
2022-12-26T08:16:11.002Z,13.25
2022-12-26T08:18:37.810Z,13.26
2022-12-26T08:21:04.286Z,13.25
2022-12-26T08:23:31.068Z,13.25
2022-12-26T08:25:57.402Z,13.24
2022-12-26T08:28:23.898Z,13.25
2022-12-26T08:30:50.413Z,13.25
2022-12-26T08:33:16.748Z,13.24
2022-12-26T08:35:43.734Z,13.24
2022-12-26T08:38:10.113Z,13.23
2022-12-26T08:40:45.002Z,13.23
2022-12-26T08:43:30.257Z,13.24
2022-12-26T08:45:58.325Z,13.24
2022-12-26T08:48:24.695Z,13.24
2022-12-26T08:50:51.118Z,13.24
2022-12-26T08:53:17.969Z,13.23
2022-12-26T08:55:44.637Z,13.23
2022-12-26T08:58:11.217Z,13.23
2022-12-26T09:00:38.343Z,13.23
2022-12-26T09:03:05.256Z,13.22
2022-12-26T09:05:31.660Z,13.23
2022-12-26T09:07:58.052Z,13.21
2022-12-26T09:10:24.590Z,13.21
2022-12-26T09:12:51.909Z,13.21
2022-12-26T09:15:18.287Z,13.21
2022-12-26T09:17:44.633Z,13.20
2022-12-26T09:20:11.768Z,13.20
2022-12-26T09:22:38.486Z,13.21
2022-12-26T09:25:05.250Z,13.19
2022-12-26T09:27:31.784Z,13.20
2022-12-26T09:29:58.112Z,13.18
2022-12-26T09:32:24.960Z,13.19
2022-12-26T09:34:53.689Z,13.18
2022-12-26T09:37:22.493Z,13.18
2022-12-26T09:39:48.836Z,13.19
2022-12-26T09:42:15.234Z,13.17
2022-12-26T09:44:41.534Z,13.18
2022-12-26T09:47:08.242Z,13.18
2022-12-26T09:49:34.748Z,13.18
2022-12-26T09:52:01.538Z,13.18
2022-12-26T09:54:28.476Z,13.17
2022-12-26T09:57:03.428Z,13.16
2022-12-26T09:59:31.467Z,13.18
2022-12-26T10:01:58.006Z,13.17
2022-12-26T10:04:29.054Z,13.17
2022-12-26T10:06:56.651Z,13.17
2022-12-26T10:09:23.693Z,13.17
2022-12-26T10:11:50.684Z,13.18
2022-12-26T10:14:21.644Z,13.17
2022-12-26T10:16:48.458Z,13.18
2022-12-26T10:19:14.889Z,13.17
2022-12-26T10:21:41.357Z,13.17
2022-12-26T10:24:07.944Z,13.18
2022-12-26T10:26:34.750Z,13.18
2022-12-26T10:29:01.802Z,13.17
2022-12-26T10:31:28.408Z,13.17
2022-12-26T10:33:55.087Z,13.16
2022-12-26T10:36:21.645Z,13.16
2022-12-26T10:38:48.537Z,13.16
2022-12-26T10:41:15.237Z,13.16
2022-12-26T10:43:41.597Z,13.15
2022-12-26T10:46:07.940Z,13.14
2022-12-26T10:48:34.704Z,13.14
2022-12-26T10:51:01.598Z,13.15
2022-12-26T10:53:27.920Z,13.15
2022-12-26T10:55:54.447Z,13.15
2022-12-26T10:58:20.930Z,13.14
2022-12-26T11:00:47.400Z,13.14
2022-12-26T11:03:14.119Z,13.14
2022-12-26T11:06:06.482Z,13.13
2022-12-26T11:08:27.627Z,13.12
2022-12-26T11:10:54.314Z,13.13
2022-12-26T11:13:20.669Z,13.12
2022-12-26T11:15:47.442Z,13.12
2022-12-26T11:18:15.875Z,13.12
2022-12-26T11:20:42.627Z,13.12
2022-12-26T11:23:09.354Z,13.12
2022-12-26T11:25:36.003Z,13.12
2022-12-26T11:28:02.648Z,13.13
2022-12-26T11:30:29.189Z,13.13
2022-12-26T11:32:56.106Z,13.13
2022-12-26T11:35:22.815Z,13.12
2022-12-26T11:37:50.015Z,13.15
2022-12-26T11:40:16.576Z,13.15
2022-12-26T11:42:43.007Z,13.16
2022-12-26T11:45:09.390Z,13.14
2022-12-26T11:47:36.362Z,13.15
2022-12-26T11:50:02.709Z,13.15
2022-12-26T11:52:29.735Z,13.16
2022-12-26T11:54:56.186Z,13.14
2022-12-26T11:57:23.014Z,13.15
2022-12-26T11:59:49.287Z,13.14
2022-12-26T12:02:15.797Z,13.14
2022-12-26T12:04:42.173Z,13.13
2022-12-26T12:07:08.911Z,13.13
2022-12-26T12:09:35.677Z,13.13
2022-12-26T12:12:02.900Z,13.14
2022-12-26T12:14:29.278Z,13.15
2022-12-26T12:16:56.007Z,13.15
2022-12-26T12:19:23.283Z,13.16
2022-12-26T12:21:49.731Z,13.15
2022-12-26T12:24:16.607Z,13.15
2022-12-26T12:26:43.154Z,13.14
2022-12-26T12:29:09.582Z,13.15
2022-12-26T12:31:36.474Z,13.14
2022-12-26T12:34:03.874Z,13.15
2022-12-26T12:36:30.222Z,13.14
2022-12-26T12:38:56.902Z,13.15
2022-12-26T12:41:23.794Z,13.14
2022-12-26T12:43:50.443Z,13.15
2022-12-26T12:46:17.336Z,13.17
2022-12-26T12:48:45.116Z,13.13
2022-12-26T12:51:11.992Z,13.06
2022-12-26T12:53:38.860Z,13.00
2022-12-26T12:56:05.732Z,12.99
2022-12-26T12:58:32.482Z,13.02
2022-12-26T13:00:59.605Z,13.11
2022-12-26T13:03:26.344Z,13.19
2022-12-26T13:05:52.752Z,13.25
2022-12-26T13:08:19.497Z,13.32
2022-12-26T13:10:46.675Z,13.39
2022-12-26T13:13:13.586Z,13.48
2022-12-26T13:15:40.068Z,13.50
2022-12-26T13:18:07.259Z,13.52
2022-12-26T13:20:34.165Z,13.56
2022-12-26T13:23:01.289Z,13.60
2022-12-26T13:25:27.967Z,13.67
2022-12-26T13:27:54.419Z,13.72
2022-12-26T13:30:20.800Z,13.77
2022-12-26T13:32:48.180Z,13.83
2022-12-26T13:38:00.711Z,13.95
2022-12-26T13:40:28.052Z,14.01
2022-12-26T13:42:54.523Z,14.06
2022-12-26T13:45:20.909Z,14.13
2022-12-26T13:47:49.953Z,14.18
2022-12-26T13:50:16.894Z,14.23
2022-12-26T13:52:43.257Z,14.28
2022-12-26T13:55:09.879Z,14.33
2022-12-26T13:57:36.839Z,14.38
2022-12-26T14:00:03.925Z,14.43
2022-12-26T14:02:58.693Z,14.49
2022-12-26T14:05:19.740Z,14.56
2022-12-26T14:07:47.286Z,14.62
2022-12-26T14:13:02.517Z,14.72
2022-12-26T14:15:28.938Z,14.79
2022-12-26T14:17:56.251Z,14.84
2022-12-26T14:20:22.879Z,14.88
2022-12-26T14:22:49.766Z,14.94
2022-12-26T14:25:17.466Z,14.96
2022-12-26T14:27:43.979Z,14.94
2022-12-26T14:32:57.246Z,14.89
2022-12-26T14:35:24.203Z,14.88
2022-12-26T14:37:51.315Z,14.88
2022-12-26T14:40:18.036Z,14.87
2022-12-26T14:42:44.553Z,14.86
2022-12-26T14:45:11.258Z,14.83
2022-12-26T14:47:38.043Z,14.85
2022-12-26T14:50:04.835Z,14.83
2022-12-26T14:52:34.520Z,14.86
2022-12-26T14:55:03.855Z,14.87
2022-12-26T14:57:32.270Z,14.87
2022-12-26T15:00:03.427Z,14.87
2022-12-26T15:02:30.933Z,14.85
2022-12-26T15:04:57.848Z,14.84
2022-12-26T15:07:24.431Z,14.83
2022-12-26T15:09:50.980Z,14.82
2022-12-26T15:12:17.776Z,14.79
2022-12-26T15:14:44.754Z,14.79
2022-12-26T15:17:11.467Z,14.78
2022-12-26T15:19:38.025Z,14.77
2022-12-26T15:22:05.282Z,14.75
2022-12-26T15:25:16.519Z,14.74
2022-12-26T15:27:19.099Z,14.73
2022-12-26T15:29:46.042Z,14.72
2022-12-26T15:32:13.180Z,14.71
2022-12-26T15:34:39.916Z,14.69
2022-12-26T15:37:07.497Z,14.71
2022-12-26T15:39:34.179Z,14.78
2022-12-26T15:42:01.168Z,14.78
2022-12-26T15:44:28.029Z,14.78
2022-12-26T15:46:54.536Z,14.78
2022-12-26T15:49:21.431Z,14.80
2022-12-26T15:51:55.413Z,14.83
2022-12-26T15:54:23.674Z,14.87
2022-12-26T15:56:50.495Z,14.89
2022-12-26T15:59:17.836Z,14.91
2022-12-26T16:01:44.518Z,14.94
2022-12-26T16:04:11.471Z,14.96
2022-12-26T16:06:38.596Z,14.97
2022-12-26T16:09:05.191Z,15.02
2022-12-26T16:11:32.436Z,15.04
2022-12-26T16:13:59.377Z,15.07
2022-12-26T16:16:26.409Z,15.11
2022-12-26T16:18:53.325Z,15.14
2022-12-26T16:24:07.681Z,15.22
2022-12-26T16:26:34.235Z,15.25
2022-12-26T16:29:00.732Z,15.32
2022-12-26T16:37:03.170Z,15.29
2022-12-26T16:39:30.039Z,15.29
2022-12-26T16:41:56.456Z,15.30
2022-12-26T16:44:28.319Z,15.28
2022-12-26T16:46:57.457Z,15.26
2022-12-26T16:49:23.874Z,15.27
2022-12-26T16:51:50.249Z,15.27
2022-12-26T16:54:17.600Z,15.25
2022-12-26T16:56:44.322Z,15.23
2022-12-26T16:59:15.467Z,15.21
2022-12-26T17:01:43.930Z,15.20
2022-12-26T17:04:10.545Z,15.18
2022-12-26T17:06:36.957Z,15.17
2022-12-26T17:09:03.397Z,15.13
2022-12-26T17:11:30.104Z,15.12
2022-12-26T17:13:56.928Z,15.09
2022-12-26T17:16:23.258Z,15.05
2022-12-26T17:18:49.745Z,15.05
2022-12-26T17:21:16.424Z,15.02
2022-12-26T17:23:43.981Z,15.00
2022-12-26T17:26:10.276Z,14.96
2022-12-26T17:28:37.492Z,14.96
2022-12-26T17:31:04.432Z,14.93
2022-12-26T17:33:31.034Z,14.94
2022-12-26T17:38:44.054Z,14.92
2022-12-26T17:41:12.395Z,14.91
2022-12-26T17:43:39.156Z,14.91
2022-12-26T17:46:06.691Z,14.91
2022-12-26T17:48:33.108Z,14.89
2022-12-26T17:51:00.101Z,14.89
2022-12-26T17:53:26.505Z,14.88
2022-12-26T17:55:53.361Z,14.87
2022-12-26T18:01:12.726Z,14.85
2022-12-26T18:03:41.004Z,14.84
2022-12-26T18:06:07.567Z,14.83
2022-12-26T18:08:34.441Z,14.80
2022-12-26T18:11:01.027Z,14.82
2022-12-26T18:16:03.747Z,14.77
2022-12-26T18:18:30.623Z,14.74
2022-12-26T18:20:57.022Z,14.74
2022-12-26T18:23:24.017Z,14.73
2022-12-26T18:25:54.336Z,14.72
2022-12-26T18:28:21.223Z,14.72
2022-12-26T18:30:47.923Z,14.72
2022-12-26T18:33:14.760Z,14.70
2022-12-26T18:35:41.365Z,14.68
2022-12-26T18:38:08.461Z,14.67
2022-12-26T18:40:34.861Z,14.67
2022-12-26T18:43:01.649Z,14.66
2022-12-26T18:45:28.123Z,14.67
2022-12-26T18:47:54.963Z,14.66
2022-12-26T18:50:21.760Z,14.65
2022-12-26T18:52:53.343Z,14.64
2022-12-26T18:55:20.198Z,14.64
2022-12-26T18:57:46.588Z,14.63
2022-12-26T19:00:13.228Z,14.62
2022-12-26T19:02:40.137Z,14.61
2022-12-26T19:05:07.807Z,14.59
2022-12-26T19:07:34.823Z,14.58
2022-12-26T19:10:01.452Z,14.57
2022-12-26T19:12:28.553Z,14.56
2022-12-26T19:14:54.937Z,14.55
2022-12-26T19:17:21.315Z,14.54
2022-12-26T19:19:47.755Z,14.51
2022-12-26T19:22:14.070Z,14.50
2022-12-26T19:24:40.425Z,14.50
2022-12-26T19:27:07.641Z,14.48
2022-12-26T19:29:34.620Z,14.45
2022-12-26T19:32:01.061Z,14.45
2022-12-26T19:34:27.712Z,14.42
2022-12-26T19:36:54.646Z,14.42
2022-12-26T19:39:21.388Z,14.39
2022-12-26T19:41:47.674Z,14.39
2022-12-26T19:44:14.393Z,14.36
2022-12-26T19:46:40.729Z,14.36
2022-12-26T19:49:07.676Z,14.34
2022-12-26T19:51:34.048Z,14.34
2022-12-26T19:54:00.419Z,14.31
2022-12-26T19:56:26.736Z,14.32
2022-12-26T19:58:56.773Z,14.31
2022-12-26T20:01:23.927Z,14.30
2022-12-26T20:03:50.678Z,14.29
2022-12-26T20:06:17.503Z,14.29
2022-12-26T20:08:44.728Z,14.29
2022-12-26T20:11:11.134Z,14.29
2022-12-26T20:13:37.498Z,14.29
2022-12-26T20:18:45.787Z,14.30
2022-12-26T20:21:13.124Z,14.29
2022-12-26T20:23:39.472Z,14.27
2022-12-26T20:26:05.754Z,14.28
2022-12-26T20:28:32.166Z,14.27
2022-12-26T20:30:58.596Z,14.26
2022-12-26T20:33:26.087Z,14.26
2022-12-26T20:35:52.507Z,14.26
2022-12-26T20:38:19.246Z,14.25
2022-12-26T20:40:50.083Z,14.25
2022-12-26T20:43:16.870Z,14.24
2022-12-26T20:45:43.314Z,14.25
2022-12-26T20:48:09.886Z,14.24
2022-12-26T20:50:36.217Z,14.22
2022-12-26T20:53:02.534Z,14.19
2022-12-26T20:55:28.983Z,14.18
2022-12-26T20:57:55.337Z,14.17
2022-12-26T21:00:21.622Z,14.17
2022-12-26T21:02:48.116Z,14.16
2022-12-26T21:05:14.575Z,14.15
2022-12-26T21:07:41.339Z,14.16
2022-12-26T21:10:07.735Z,14.16
2022-12-26T21:12:34.135Z,14.16
2022-12-26T21:15:00.644Z,14.16
2022-12-26T21:17:27.323Z,14.15
2022-12-26T21:19:53.977Z,14.15
2022-12-26T21:22:20.408Z,14.17
2022-12-26T21:24:47.044Z,14.16
2022-12-26T21:27:13.313Z,14.17
2022-12-26T21:29:39.837Z,14.17
2022-12-26T21:32:06.196Z,14.15
2022-12-26T21:34:32.489Z,14.16
2022-12-26T21:36:58.819Z,14.15
2022-12-26T21:39:25.389Z,14.15
2022-12-26T21:41:51.780Z,14.14
2022-12-26T21:44:18.087Z,14.15
2022-12-26T21:46:44.532Z,14.13
2022-12-26T21:49:11.248Z,14.13
2022-12-26T21:51:37.911Z,14.13
2022-12-26T21:54:04.379Z,14.11
2022-12-26T21:56:30.843Z,14.11
2022-12-26T21:58:57.253Z,14.12
2022-12-26T22:01:23.756Z,14.12
2022-12-26T22:03:50.146Z,14.12
2022-12-26T22:06:16.465Z,14.09
2022-12-26T22:08:43.091Z,14.09
2022-12-26T22:11:09.467Z,14.09
2022-12-26T22:13:36.011Z,14.10
2022-12-26T22:16:02.396Z,14.10
2022-12-26T22:18:29.227Z,14.09
2022-12-26T22:20:55.590Z,14.09
2022-12-26T22:23:21.891Z,14.08
2022-12-26T22:25:48.181Z,14.06
2022-12-26T22:28:20.159Z,14.08
2022-12-26T22:30:49.487Z,14.07
2022-12-26T22:33:15.898Z,14.08
2022-12-26T22:35:42.264Z,14.08
2022-12-26T22:38:08.883Z,14.06
2022-12-26T22:40:35.486Z,14.06
2022-12-26T22:43:02.470Z,14.06
2022-12-26T22:45:28.857Z,14.05
2022-12-26T22:47:55.296Z,14.04
2022-12-26T22:50:21.840Z,14.04
2022-12-26T22:52:48.780Z,14.02
2022-12-26T22:55:15.240Z,14.03
2022-12-26T22:57:41.664Z,14.04
2022-12-26T23:00:09.685Z,14.02
2022-12-26T23:02:37.205Z,14.02
2022-12-26T23:05:04.261Z,14.01
2022-12-26T23:07:31.605Z,14.01
2022-12-26T23:09:57.932Z,14.01
2022-12-26T23:12:24.334Z,14.01
2022-12-26T23:14:50.698Z,14.00
2022-12-26T23:17:17.841Z,14.00
2022-12-26T23:19:44.319Z,14.00
2022-12-26T23:22:11.110Z,13.99
2022-12-26T23:24:37.842Z,13.99
2022-12-26T23:27:11.692Z,13.97
2022-12-26T23:29:38.193Z,13.97
2022-12-26T23:32:04.926Z,13.96
2022-12-26T23:34:31.727Z,13.97
2022-12-26T23:36:58.585Z,13.97
2022-12-26T23:39:25.283Z,13.96
2022-12-26T23:41:51.746Z,13.95
2022-12-26T23:44:18.288Z,13.95
2022-12-26T23:46:44.640Z,13.94
2022-12-26T23:49:11.367Z,13.95
2022-12-26T23:51:38.327Z,13.94
2022-12-26T23:54:05.137Z,13.93
2022-12-26T23:56:31.583Z,13.93
2022-12-26T23:58:57.930Z,13.92
